Terminal Aerodrome Forecast
Issued by NWS Riverton, WY

Home | Current Version | Previous Version | Text Only | Print | Product List | Glossary On
Versions: 1 2 3 4 5 6 7 8 9 10 11 12 13 14 15 16 17 18
000
FTUS45 KRIW 212300
TAFRIW
TAF
KRIW 212339Z 2200/2224 30028G38KT P6SM VCSH BKN070
     FM221800 31012G25KT P6SM SCT050 BKN100
     FM222000 31015G25KT P6SM VCSH BKN050=

USA.gov is the U.S. government's official web portal to all federal, state and local government web resources and services.